sensor_id;sensor_type;location;lat;lon;timestamp;P1;durP1;ratioP1;P2;durP2;ratioP2
59907;SDS011;61804;54.926;73.496;2023-11-18T00:01:12;96.13;;;44.88;;
59907;SDS011;61804;54.926;73.496;2023-11-18T00:03:39;62.88;;;26.23;;
59907;SDS011;61804;54.926;73.496;2023-11-18T00:06:07;69.10;;;15.45;;
59907;SDS011;61804;54.926;73.496;2023-11-18T00:08:35;58.67;;;16.00;;
59907;SDS011;61804;54.926;73.496;2023-11-18T00:11:02;67.85;;;13.65;;
59907;SDS011;61804;54.926;73.496;2023-11-18T00:13:30;55.97;;;13.65;;
59907;SDS011;61804;54.926;73.496;2023-11-18T00:15:58;32.40;;;9.70;;
59907;SDS011;61804;54.926;73.496;2023-11-18T00:18:25;29.60;;;8.27;;
59907;SDS011;61804;54.926;73.496;2023-11-18T00:20:52;31.98;;;9.20;;
59907;SDS011;61804;54.926;73.496;2023-11-18T00:23:19;37.15;;;9.88;;
59907;SDS011;61804;54.926;73.496;2023-11-18T00:25:47;20.48;;;9.48;;
59907;SDS011;61804;54.926;73.496;2023-11-18T00:28:14;16.98;;;8.90;;
59907;SDS011;61804;54.926;73.496;2023-11-18T00:30:43;27.02;;;9.50;;
59907;SDS011;61804;54.926;73.496;2023-11-18T00:33:10;20.40;;;7.88;;
59907;SDS011;61804;54.926;73.496;2023-11-18T00:35:38;17.77;;;7.78;;
59907;SDS011;61804;54.926;73.496;2023-11-18T00:38:07;24.13;;;8.75;;
59907;SDS011;61804;54.926;73.496;2023-11-18T00:40:34;10.25;;;7.43;;
59907;SDS011;61804;54.926;73.496;2023-11-18T00:43:01;28.10;;;10.52;;
59907;SDS011;61804;54.926;73.496;2023-11-18T00:45:30;14.00;;;9.52;;
59907;SDS011;61804;54.926;73.496;2023-11-18T00:47:58;35.30;;;9.10;;
59907;SDS011;61804;54.926;73.496;2023-11-18T00:50:26;11.00;;;7.05;;
59907;SDS011;61804;54.926;73.496;2023-11-18T00:52:53;23.83;;;8.02;;
59907;SDS011;61804;54.926;73.496;2023-11-18T00:55:21;26.85;;;8.35;;
59907;SDS011;61804;54.926;73.496;2023-11-18T00:57:48;10.65;;;7.35;;
59907;SDS011;61804;54.926;73.496;2023-11-18T01:00:15;20.02;;;7.57;;
59907;SDS011;61804;54.926;73.496;2023-11-18T01:02:46;19.13;;;8.55;;
59907;SDS011;61804;54.926;73.496;2023-11-18T01:05:15;39.83;;;9.20;;
59907;SDS011;61804;54.926;73.496;2023-11-18T01:07:42;19.10;;;8.75;;
59907;SDS011;61804;54.926;73.496;2023-11-18T01:10:11;12.82;;;7.63;;
59907;SDS011;61804;54.926;73.496;2023-11-18T01:12:40;7.53;;;6.78;;
59907;SDS011;61804;54.926;73.496;2023-11-18T01:15:08;8.95;;;6.60;;
59907;SDS011;61804;54.926;73.496;2023-11-18T01:17:39;7.30;;;6.30;;
59907;SDS011;61804;54.926;73.496;2023-11-18T01:20:07;17.83;;;7.35;;
59907;SDS011;61804;54.926;73.496;2023-11-18T01:22:37;21.17;;;7.45;;
59907;SDS011;61804;54.926;73.496;2023-11-18T01:25:06;16.80;;;6.68;;
59907;SDS011;61804;54.926;73.496;2023-11-18T01:27:35;29.02;;;8.63;;
59907;SDS011;61804;54.926;73.496;2023-11-18T01:30:03;26.00;;;7.78;;
59907;SDS011;61804;54.926;73.496;2023-11-18T01:32:31;29.52;;;8.18;;
59907;SDS011;61804;54.926;73.496;2023-11-18T01:34:58;10.10;;;6.60;;
59907;SDS011;61804;54.926;73.496;2023-11-18T01:37:25;24.25;;;8.85;;
59907;SDS011;61804;54.926;73.496;2023-11-18T01:39:53;20.10;;;7.50;;
59907;SDS011;61804;54.926;73.496;2023-11-18T01:42:21;21.52;;;9.30;;
59907;SDS011;61804;54.926;73.496;2023-11-18T01:44:48;19.50;;;7.70;;
59907;SDS011;61804;54.926;73.496;2023-11-18T01:47:16;39.97;;;8.70;;
59907;SDS011;61804;54.926;73.496;2023-11-18T01:49:43;18.08;;;6.47;;
59907;SDS011;61804;54.926;73.496;2023-11-18T01:52:10;18.45;;;6.57;;
59907;SDS011;61804;54.926;73.496;2023-11-18T01:54:38;26.90;;;9.05;;
59907;SDS011;61804;54.926;73.496;2023-11-18T01:57:06;24.77;;;9.02;;
59907;SDS011;61804;54.926;73.496;2023-11-18T01:59:36;7.63;;;6.30;;
59907;SDS011;61804;54.926;73.496;2023-11-18T02:02:04;9.18;;;6.68;;
59907;SDS011;61804;54.926;73.496;2023-11-18T02:04:32;15.90;;;5.63;;
59907;SDS011;61804;54.926;73.496;2023-11-18T02:07:00;8.45;;;6.18;;
59907;SDS011;61804;54.926;73.496;2023-11-18T02:09:30;13.30;;;5.65;;
59907;SDS011;61804;54.926;73.496;2023-11-18T02:14:26;8.18;;;6.18;;
59907;SDS011;61804;54.926;73.496;2023-11-18T02:16:55;5.78;;;5.18;;
59907;SDS011;61804;54.926;73.496;2023-11-18T02:19:23;8.10;;;6.10;;
59907;SDS011;61804;54.926;73.496;2023-11-18T02:21:52;9.10;;;6.30;;
59907;SDS011;61804;54.926;73.496;2023-11-18T02:24:27;12.52;;;6.63;;
59907;SDS011;61804;54.926;73.496;2023-11-18T02:26:58;9.27;;;6.38;;
59907;SDS011;61804;54.926;73.496;2023-11-18T02:29:25;12.77;;;10.30;;
59907;SDS011;61804;54.926;73.496;2023-11-18T02:32:00;10.25;;;7.15;;
59907;SDS011;61804;54.926;73.496;2023-11-18T02:34:30;8.47;;;7.57;;
59907;SDS011;61804;54.926;73.496;2023-11-18T02:36:58;11.13;;;8.45;;
59907;SDS011;61804;54.926;73.496;2023-11-18T02:41:55;8.50;;;7.60;;
59907;SDS011;61804;54.926;73.496;2023-11-18T02:44:24;8.73;;;7.45;;
59907;SDS011;61804;54.926;73.496;2023-11-18T02:46:53;11.43;;;7.47;;
59907;SDS011;61804;54.926;73.496;2023-11-18T02:49:21;7.57;;;6.70;;
59907;SDS011;61804;54.926;73.496;2023-11-18T02:51:49;12.85;;;7.68;;
59907;SDS011;61804;54.926;73.496;2023-11-18T02:54:17;9.15;;;7.28;;
59907;SDS011;61804;54.926;73.496;2023-11-18T02:56:44;9.15;;;6.93;;
59907;SDS011;61804;54.926;73.496;2023-11-18T02:59:11;10.13;;;7.97;;
59907;SDS011;61804;54.926;73.496;2023-11-18T03:01:39;7.70;;;6.90;;
59907;SDS011;61804;54.926;73.496;2023-11-18T03:04:08;9.05;;;7.97;;
59907;SDS011;61804;54.926;73.496;2023-11-18T03:06:36;7.43;;;5.75;;
59907;SDS011;61804;54.926;73.496;2023-11-18T03:09:05;8.45;;;7.65;;
59907;SDS011;61804;54.926;73.496;2023-11-18T03:11:34;10.15;;;7.75;;
59907;SDS011;61804;54.926;73.496;2023-11-18T03:14:01;6.97;;;6.32;;
59907;SDS011;61804;54.926;73.496;2023-11-18T03:16:31;8.88;;;7.30;;
59907;SDS011;61804;54.926;73.496;2023-11-18T03:18:59;7.60;;;6.38;;
59907;SDS011;61804;54.926;73.496;2023-11-18T03:21:27;9.93;;;6.93;;
59907;SDS011;61804;54.926;73.496;2023-11-18T03:23:54;7.57;;;6.75;;
59907;SDS011;61804;54.926;73.496;2023-11-18T03:26:21;7.05;;;6.35;;
59907;SDS011;61804;54.926;73.496;2023-11-18T03:28:49;7.25;;;4.93;;
59907;SDS011;61804;54.926;73.496;2023-11-18T03:31:16;7.93;;;6.05;;
59907;SDS011;61804;54.926;73.496;2023-11-18T03:33:45;6.05;;;5.32;;
59907;SDS011;61804;54.926;73.496;2023-11-18T03:36:12;5.65;;;4.45;;
59907;SDS011;61804;54.926;73.496;2023-11-18T03:38:39;5.65;;;5.10;;
59907;SDS011;61804;54.926;73.496;2023-11-18T03:41:07;5.30;;;4.35;;
59907;SDS011;61804;54.926;73.496;2023-11-18T03:43:35;5.97;;;5.35;;
59907;SDS011;61804;54.926;73.496;2023-11-18T03:46:02;7.90;;;7.13;;
59907;SDS011;61804;54.926;73.496;2023-11-18T03:48:29;6.72;;;5.28;;
59907;SDS011;61804;54.926;73.496;2023-11-18T03:50:56;5.20;;;4.80;;
59907;SDS011;61804;54.926;73.496;2023-11-18T03:53:24;4.63;;;4.20;;
59907;SDS011;61804;54.926;73.496;2023-11-18T03:55:51;5.80;;;4.53;;
59907;SDS011;61804;54.926;73.496;2023-11-18T03:58:19;7.88;;;4.88;;
59907;SDS011;61804;54.926;73.496;2023-11-18T04:00:47;4.95;;;4.45;;
59907;SDS011;61804;54.926;73.496;2023-11-18T04:03:14;4.85;;;3.97;;
59907;SDS011;61804;54.926;73.496;2023-11-18T04:05:41;5.22;;;4.72;;
59907;SDS011;61804;54.926;73.496;2023-11-18T04:08:10;15.13;;;8.70;;
59907;SDS011;61804;54.926;73.496;2023-11-18T04:10:39;4.88;;;3.88;;
59907;SDS011;61804;54.926;73.496;2023-11-18T04:13:07;6.80;;;4.53;;
59907;SDS011;61804;54.926;73.496;2023-11-18T04:15:34;5.90;;;3.95;;
59907;SDS011;61804;54.926;73.496;2023-11-18T04:18:02;4.15;;;3.75;;
59907;SDS011;61804;54.926;73.496;2023-11-18T04:20:30;4.90;;;3.92;;
59907;SDS011;61804;54.926;73.496;2023-11-18T04:22:57;3.58;;;2.90;;
59907;SDS011;61804;54.926;73.496;2023-11-18T04:25:25;3.85;;;3.45;;
59907;SDS011;61804;54.926;73.496;2023-11-18T04:27:52;4.85;;;3.20;;
59907;SDS011;61804;54.926;73.496;2023-11-18T04:30:20;3.80;;;3.38;;
59907;SDS011;61804;54.926;73.496;2023-11-18T04:32:48;5.30;;;4.80;;
59907;SDS011;61804;54.926;73.496;2023-11-18T04:35:18;7.35;;;5.10;;
59907;SDS011;61804;54.926;73.496;2023-11-18T04:37:49;5.80;;;4.97;;
59907;SDS011;61804;54.926;73.496;2023-11-18T04:40:16;4.70;;;4.20;;
59907;SDS011;61804;54.926;73.496;2023-11-18T04:42:45;30.10;;;26.10;;
59907;SDS011;61804;54.926;73.496;2023-11-18T04:45:12;13.30;;;9.05;;
59907;SDS011;61804;54.926;73.496;2023-11-18T04:47:41;6.72;;;6.13;;
59907;SDS011;61804;54.926;73.496;2023-11-18T04:50:10;7.00;;;6.20;;
59907;SDS011;61804;54.926;73.496;2023-11-18T04:52:37;7.43;;;4.88;;
59907;SDS011;61804;54.926;73.496;2023-11-18T04:55:05;10.18;;;5.78;;
59907;SDS011;61804;54.926;73.496;2023-11-18T04:57:32;10.30;;;6.10;;
59907;SDS011;61804;54.926;73.496;2023-11-18T05:00:00;19.67;;;11.10;;
59907;SDS011;61804;54.926;73.496;2023-11-18T05:02:37;13.32;;;10.88;;
59907;SDS011;61804;54.926;73.496;2023-11-18T05:05:04;11.73;;;8.23;;
59907;SDS011;61804;54.926;73.496;2023-11-18T05:07:33;9.23;;;6.93;;
59907;SDS011;61804;54.926;73.496;2023-11-18T05:10:01;7.60;;;4.25;;
59907;SDS011;61804;54.926;73.496;2023-11-18T05:12:29;3.75;;;2.85;;
59907;SDS011;61804;54.926;73.496;2023-11-18T05:14:57;17.83;;;5.28;;
59907;SDS011;61804;54.926;73.496;2023-11-18T05:17:24;5.45;;;4.13;;
59907;SDS011;61804;54.926;73.496;2023-11-18T05:19:53;12.93;;;7.30;;
59907;SDS011;61804;54.926;73.496;2023-11-18T05:22:21;10.70;;;9.60;;
59907;SDS011;61804;54.926;73.496;2023-11-18T05:24:49;7.90;;;6.65;;
59907;SDS011;61804;54.926;73.496;2023-11-18T05:27:16;7.00;;;3.92;;
59907;SDS011;61804;54.926;73.496;2023-11-18T05:29:44;4.10;;;3.45;;
59907;SDS011;61804;54.926;73.496;2023-11-18T05:32:15;3.55;;;3.13;;
59907;SDS011;61804;54.926;73.496;2023-11-18T05:34:50;3.23;;;2.50;;
59907;SDS011;61804;54.926;73.496;2023-11-18T05:37:21;3.58;;;3.28;;
59907;SDS011;61804;54.926;73.496;2023-11-18T05:39:49;4.88;;;3.72;;
59907;SDS011;61804;54.926;73.496;2023-11-18T05:42:25;4.18;;;3.78;;
59907;SDS011;61804;54.926;73.496;2023-11-18T05:44:53;3.70;;;2.38;;
59907;SDS011;61804;54.926;73.496;2023-11-18T05:47:25;5.18;;;3.30;;
59907;SDS011;61804;54.926;73.496;2023-11-18T05:49:54;4.32;;;2.67;;
59907;SDS011;61804;54.926;73.496;2023-11-18T05:52:21;1.83;;;1.73;;
59907;SDS011;61804;54.926;73.496;2023-11-18T05:54:49;2.30;;;2.10;;
59907;SDS011;61804;54.926;73.496;2023-11-18T05:57:17;6.50;;;6.03;;
59907;SDS011;61804;54.926;73.496;2023-11-18T05:59:45;4.47;;;2.22;;
59907;SDS011;61804;54.926;73.496;2023-11-18T06:02:15;2.63;;;2.22;;
59907;SDS011;61804;54.926;73.496;2023-11-18T06:04:44;2.97;;;1.73;;
59907;SDS011;61804;54.926;73.496;2023-11-18T06:07:12;3.25;;;2.20;;
59907;SDS011;61804;54.926;73.496;2023-11-18T06:09:43;5.32;;;2.47;;
59907;SDS011;61804;54.926;73.496;2023-11-18T06:12:11;2.33;;;1.67;;
59907;SDS011;61804;54.926;73.496;2023-11-18T06:14:40;2.13;;;1.90;;
59907;SDS011;61804;54.926;73.496;2023-11-18T06:17:08;2.35;;;1.90;;
59907;SDS011;61804;54.926;73.496;2023-11-18T06:19:36;2.05;;;1.73;;
59907;SDS011;61804;54.926;73.496;2023-11-18T06:22:03;2.25;;;2.05;;
59907;SDS011;61804;54.926;73.496;2023-11-18T06:24:30;2.28;;;1.92;;
59907;SDS011;61804;54.926;73.496;2023-11-18T06:26:57;3.17;;;2.88;;
59907;SDS011;61804;54.926;73.496;2023-11-18T06:29:27;5.30;;;3.33;;
59907;SDS011;61804;54.926;73.496;2023-11-18T06:31:56;5.78;;;3.58;;
59907;SDS011;61804;54.926;73.496;2023-11-18T06:34:24;3.65;;;3.35;;
59907;SDS011;61804;54.926;73.496;2023-11-18T06:36:53;3.83;;;3.47;;
59907;SDS011;61804;54.926;73.496;2023-11-18T06:39:21;3.75;;;3.35;;
59907;SDS011;61804;54.926;73.496;2023-11-18T06:41:56;2.72;;;2.53;;
59907;SDS011;61804;54.926;73.496;2023-11-18T06:44:25;3.90;;;3.60;;
59907;SDS011;61804;54.926;73.496;2023-11-18T06:46:52;3.85;;;3.55;;
59907;SDS011;61804;54.926;73.496;2023-11-18T06:49:20;3.97;;;3.58;;
59907;SDS011;61804;54.926;73.496;2023-11-18T06:51:47;3.33;;;2.85;;
59907;SDS011;61804;54.926;73.496;2023-11-18T06:54:14;2.53;;;2.30;;
59907;SDS011;61804;54.926;73.496;2023-11-18T06:56:42;3.13;;;1.92;;
59907;SDS011;61804;54.926;73.496;2023-11-18T06:59:11;2.95;;;2.13;;
59907;SDS011;61804;54.926;73.496;2023-11-18T07:01:41;2.38;;;2.13;;
59907;SDS011;61804;54.926;73.496;2023-11-18T07:04:12;3.25;;;2.10;;
59907;SDS011;61804;54.926;73.496;2023-11-18T07:06:42;2.00;;;1.83;;
59907;SDS011;61804;54.926;73.496;2023-11-18T07:09:09;2.80;;;1.95;;
59907;SDS011;61804;54.926;73.496;2023-11-18T07:11:43;2.30;;;1.60;;
59907;SDS011;61804;54.926;73.496;2023-11-18T07:14:11;4.35;;;2.20;;
59907;SDS011;61804;54.926;73.496;2023-11-18T07:16:39;1.73;;;1.55;;
59907;SDS011;61804;54.926;73.496;2023-11-18T07:19:07;2.53;;;2.20;;
59907;SDS011;61804;54.926;73.496;2023-11-18T07:21:34;1.90;;;1.80;;
59907;SDS011;61804;54.926;73.496;2023-11-18T07:24:01;3.78;;;2.65;;
59907;SDS011;61804;54.926;73.496;2023-11-18T07:26:29;6.65;;;5.60;;
59907;SDS011;61804;54.926;73.496;2023-11-18T07:28:56;6.80;;;5.22;;
59907;SDS011;61804;54.926;73.496;2023-11-18T07:31:23;3.78;;;2.42;;
59907;SDS011;61804;54.926;73.496;2023-11-18T07:33:51;2.50;;;2.30;;
59907;SDS011;61804;54.926;73.496;2023-11-18T07:36:19;2.53;;;1.95;;
59907;SDS011;61804;54.926;73.496;2023-11-18T07:38:47;2.05;;;1.52;;
59907;SDS011;61804;54.926;73.496;2023-11-18T07:41:14;3.13;;;2.45;;
59907;SDS011;61804;54.926;73.496;2023-11-18T07:43:50;2.10;;;1.65;;
59907;SDS011;61804;54.926;73.496;2023-11-18T07:46:24;2.75;;;1.80;;
59907;SDS011;61804;54.926;73.496;2023-11-18T07:48:52;8.30;;;2.22;;
59907;SDS011;61804;54.926;73.496;2023-11-18T07:51:20;3.50;;;2.17;;
59907;SDS011;61804;54.926;73.496;2023-11-18T07:53:51;1.88;;;1.73;;
59907;SDS011;61804;54.926;73.496;2023-11-18T07:56:21;1.80;;;1.70;;
59907;SDS011;61804;54.926;73.496;2023-11-18T07:58:50;5.70;;;4.50;;
59907;SDS011;61804;54.926;73.496;2023-11-18T08:01:18;6.65;;;3.67;;
59907;SDS011;61804;54.926;73.496;2023-11-18T08:03:48;2.75;;;2.55;;
59907;SDS011;61804;54.926;73.496;2023-11-18T08:06:18;4.43;;;2.92;;
59907;SDS011;61804;54.926;73.496;2023-11-18T08:08:45;3.55;;;2.50;;
59907;SDS011;61804;54.926;73.496;2023-11-18T08:11:15;2.47;;;2.22;;
59907;SDS011;61804;54.926;73.496;2023-11-18T08:13:43;6.97;;;6.20;;
59907;SDS011;61804;54.926;73.496;2023-11-18T08:16:11;11.48;;;8.02;;
59907;SDS011;61804;54.926;73.496;2023-11-18T08:18:39;16.95;;;3.55;;
59907;SDS011;61804;54.926;73.496;2023-11-18T08:21:07;2.15;;;1.95;;
59907;SDS011;61804;54.926;73.496;2023-11-18T08:23:34;1.75;;;1.65;;
59907;SDS011;61804;54.926;73.496;2023-11-18T08:26:06;2.30;;;1.98;;
59907;SDS011;61804;54.926;73.496;2023-11-18T08:28:34;2.88;;;2.50;;
59907;SDS011;61804;54.926;73.496;2023-11-18T08:31:02;2.85;;;2.20;;
59907;SDS011;61804;54.926;73.496;2023-11-18T08:33:29;2.83;;;2.60;;
59907;SDS011;61804;54.926;73.496;2023-11-18T08:35:57;3.80;;;3.35;;
59907;SDS011;61804;54.926;73.496;2023-11-18T08:38:28;2.88;;;2.35;;
59907;SDS011;61804;54.926;73.496;2023-11-18T08:40:56;3.08;;;2.65;;
59907;SDS011;61804;54.926;73.496;2023-11-18T08:43:24;3.05;;;2.63;;
59907;SDS011;61804;54.926;73.496;2023-11-18T08:45:52;3.47;;;2.35;;
59907;SDS011;61804;54.926;73.496;2023-11-18T08:48:20;3.63;;;2.95;;
59907;SDS011;61804;54.926;73.496;2023-11-18T08:50:49;4.22;;;3.33;;
59907;SDS011;61804;54.926;73.496;2023-11-18T08:53:18;7.13;;;3.58;;
59907;SDS011;61804;54.926;73.496;2023-11-18T08:55:45;4.97;;;3.83;;
59907;SDS011;61804;54.926;73.496;2023-11-18T08:58:20;3.42;;;3.13;;
59907;SDS011;61804;54.926;73.496;2023-11-18T09:00:55;3.03;;;2.65;;
59907;SDS011;61804;54.926;73.496;2023-11-18T09:03:23;3.97;;;3.08;;
59907;SDS011;61804;54.926;73.496;2023-11-18T09:06:03;4.72;;;4.32;;
59907;SDS011;61804;54.926;73.496;2023-11-18T09:08:47;3.28;;;2.88;;
59907;SDS011;61804;54.926;73.496;2023-11-18T09:11:19;3.10;;;2.80;;
59907;SDS011;61804;54.926;73.496;2023-11-18T09:13:49;4.80;;;3.22;;
59907;SDS011;61804;54.926;73.496;2023-11-18T09:16:27;3.40;;;3.10;;
59907;SDS011;61804;54.926;73.496;2023-11-18T09:18:59;5.57;;;5.03;;
59907;SDS011;61804;54.926;73.496;2023-11-18T09:21:29;9.38;;;3.47;;
59907;SDS011;61804;54.926;73.496;2023-11-18T09:23:59;4.38;;;2.65;;
59907;SDS011;61804;54.926;73.496;2023-11-18T09:26:28;3.75;;;2.67;;
59907;SDS011;61804;54.926;73.496;2023-11-18T09:28:56;5.47;;;3.92;;
59907;SDS011;61804;54.926;73.496;2023-11-18T09:31:26;7.30;;;4.47;;
59907;SDS011;61804;54.926;73.496;2023-11-18T09:33:53;8.68;;;7.90;;
59907;SDS011;61804;54.926;73.496;2023-11-18T09:36:24;9.95;;;6.82;;
59907;SDS011;61804;54.926;73.496;2023-11-18T09:38:59;31.52;;;6.25;;
59907;SDS011;61804;54.926;73.496;2023-11-18T09:41:29;3.55;;;2.38;;
59907;SDS011;61804;54.926;73.496;2023-11-18T09:44:00;5.25;;;3.97;;
59907;SDS011;61804;54.926;73.496;2023-11-18T09:46:29;5.68;;;2.80;;
59907;SDS011;61804;54.926;73.496;2023-11-18T09:51:32;8.65;;;3.45;;
59907;SDS011;61804;54.926;73.496;2023-11-18T09:54:05;7.45;;;3.45;;
59907;SDS011;61804;54.926;73.496;2023-11-18T09:59:22;4.03;;;3.57;;
59907;SDS011;61804;54.926;73.496;2023-11-18T10:01:51;4.68;;;3.65;;
59907;SDS011;61804;54.926;73.496;2023-11-18T10:04:20;2.95;;;2.75;;
59907;SDS011;61804;54.926;73.496;2023-11-18T10:06:47;3.45;;;3.15;;
59907;SDS011;61804;54.926;73.496;2023-11-18T10:09:17;3.55;;;2.58;;
59907;SDS011;61804;54.926;73.496;2023-11-18T10:11:47;3.30;;;2.50;;
59907;SDS011;61804;54.926;73.496;2023-11-18T10:14:14;4.93;;;3.50;;
59907;SDS011;61804;54.926;73.496;2023-11-18T10:16:45;4.70;;;3.55;;
59907;SDS011;61804;54.926;73.496;2023-11-18T10:19:16;4.28;;;3.30;;
59907;SDS011;61804;54.926;73.496;2023-11-18T10:21:44;3.13;;;2.78;;
59907;SDS011;61804;54.926;73.496;2023-11-18T10:24:15;4.28;;;2.60;;
59907;SDS011;61804;54.926;73.496;2023-11-18T10:26:53;4.40;;;3.80;;
59907;SDS011;61804;54.926;73.496;2023-11-18T10:29:26;6.03;;;3.15;;
59907;SDS011;61804;54.926;73.496;2023-11-18T10:32:06;2.97;;;2.78;;
59907;SDS011;61804;54.926;73.496;2023-11-18T10:34:42;5.20;;;1.90;;
59907;SDS011;61804;54.926;73.496;2023-11-18T10:37:10;2.30;;;1.88;;
59907;SDS011;61804;54.926;73.496;2023-11-18T10:39:37;2.00;;;1.65;;
59907;SDS011;61804;54.926;73.496;2023-11-18T10:42:04;3.83;;;2.10;;
59907;SDS011;61804;54.926;73.496;2023-11-18T10:44:32;2.90;;;2.42;;
59907;SDS011;61804;54.926;73.496;2023-11-18T10:47:00;3.35;;;2.17;;
59907;SDS011;61804;54.926;73.496;2023-11-18T10:49:28;3.15;;;2.75;;
59907;SDS011;61804;54.926;73.496;2023-11-18T10:52:04;3.38;;;3.08;;
59907;SDS011;61804;54.926;73.496;2023-11-18T10:54:33;2.75;;;2.20;;
59907;SDS011;61804;54.926;73.496;2023-11-18T10:57:01;5.30;;;3.65;;
59907;SDS011;61804;54.926;73.496;2023-11-18T10:59:34;4.68;;;4.03;;
59907;SDS011;61804;54.926;73.496;2023-11-18T11:02:05;5.60;;;5.10;;
59907;SDS011;61804;54.926;73.496;2023-11-18T11:04:45;5.53;;;4.88;;
59907;SDS011;61804;54.926;73.496;2023-11-18T11:07:12;6.32;;;4.90;;
59907;SDS011;61804;54.926;73.496;2023-11-18T11:09:41;4.28;;;3.88;;
59907;SDS011;61804;54.926;73.496;2023-11-18T11:12:12;6.82;;;3.75;;
59907;SDS011;61804;54.926;73.496;2023-11-18T11:14:47;5.45;;;4.53;;
59907;SDS011;61804;54.926;73.496;2023-11-18T11:17:18;6.68;;;5.28;;
59907;SDS011;61804;54.926;73.496;2023-11-18T11:20:03;6.47;;;5.10;;
59907;SDS011;61804;54.926;73.496;2023-11-18T11:22:55;4.10;;;3.80;;
59907;SDS011;61804;54.926;73.496;2023-11-18T11:25:28;5.10;;;3.83;;
59907;SDS011;61804;54.926;73.496;2023-11-18T11:30:29;3.85;;;3.10;;
59907;SDS011;61804;54.926;73.496;2023-11-18T11:36:02;2.25;;;2.05;;
59907;SDS011;61804;54.926;73.496;2023-11-18T11:38:30;9.93;;;8.35;;
59907;SDS011;61804;54.926;73.496;2023-11-18T11:40:59;3.38;;;2.00;;
59907;SDS011;61804;54.926;73.496;2023-11-18T11:43:28;5.03;;;1.20;;
59907;SDS011;61804;54.926;73.496;2023-11-18T11:45:56;1.00;;;0.90;;
59907;SDS011;61804;54.926;73.496;2023-11-18T11:48:24;1.30;;;1.05;;
59907;SDS011;61804;54.926;73.496;2023-11-18T11:53:48;1.20;;;1.10;;
59907;SDS011;61804;54.926;73.496;2023-11-18T11:56:19;1.95;;;1.45;;
59907;SDS011;61804;54.926;73.496;2023-11-18T11:58:50;1.73;;;1.55;;
59907;SDS011;61804;54.926;73.496;2023-11-18T12:01:22;1.48;;;1.38;;
59907;SDS011;61804;54.926;73.496;2023-11-18T12:03:52;3.20;;;2.30;;
59907;SDS011;61804;54.926;73.496;2023-11-18T12:06:24;3.03;;;2.28;;
59907;SDS011;61804;54.926;73.496;2023-11-18T12:08:53;1.88;;;1.77;;
59907;SDS011;61804;54.926;73.496;2023-11-18T12:11:22;1.60;;;1.50;;
59907;SDS011;61804;54.926;73.496;2023-11-18T12:14:08;1.77;;;1.40;;
59907;SDS011;61804;54.926;73.496;2023-11-18T12:19:34;1.65;;;1.45;;
59907;SDS011;61804;54.926;73.496;2023-11-18T12:22:21;1.52;;;1.42;;
59907;SDS011;61804;54.926;73.496;2023-11-18T12:27:46;1.58;;;1.25;;
59907;SDS011;61804;54.926;73.496;2023-11-18T12:30:40;1.25;;;1.15;;
59907;SDS011;61804;54.926;73.496;2023-11-18T12:33:19;2.45;;;2.00;;
59907;SDS011;61804;54.926;73.496;2023-11-18T12:41:08;4.13;;;3.53;;
59907;SDS011;61804;54.926;73.496;2023-11-18T12:43:56;2.95;;;1.85;;
59907;SDS011;61804;54.926;73.496;2023-11-18T12:49:04;1.58;;;1.48;;
59907;SDS011;61804;54.926;73.496;2023-11-18T12:51:32;0.88;;;0.85;;
59907;SDS011;61804;54.926;73.496;2023-11-18T12:54:01;0.95;;;0.95;;
59907;SDS011;61804;54.926;73.496;2023-11-18T12:56:29;0.95;;;0.95;;
59907;SDS011;61804;54.926;73.496;2023-11-18T12:58:57;0.63;;;0.40;;
59907;SDS011;61804;54.926;73.496;2023-11-18T13:01:39;0.73;;;0.60;;
59907;SDS011;61804;54.926;73.496;2023-11-18T13:04:08;0.82;;;0.80;;
59907;SDS011;61804;54.926;73.496;2023-11-18T13:06:51;0.70;;;0.70;;
59907;SDS011;61804;54.926;73.496;2023-11-18T13:09:21;1.08;;;1.02;;
59907;SDS011;61804;54.926;73.496;2023-11-18T13:11:53;1.60;;;1.05;;
59907;SDS011;61804;54.926;73.496;2023-11-18T13:14:26;0.63;;;0.63;;
59907;SDS011;61804;54.926;73.496;2023-11-18T13:16:53;0.85;;;0.75;;
59907;SDS011;61804;54.926;73.496;2023-11-18T13:22:04;1.63;;;1.52;;
59907;SDS011;61804;54.926;73.496;2023-11-18T13:24:34;0.95;;;0.90;;
59907;SDS011;61804;54.926;73.496;2023-11-18T13:27:19;1.17;;;0.90;;
59907;SDS011;61804;54.926;73.496;2023-11-18T13:29:48;1.55;;;1.27;;
59907;SDS011;61804;54.926;73.496;2023-11-18T13:32:20;4.35;;;2.47;;
59907;SDS011;61804;54.926;73.496;2023-11-18T13:34:50;2.20;;;1.58;;
59907;SDS011;61804;54.926;73.496;2023-11-18T13:37:30;1.77;;;1.35;;
59907;SDS011;61804;54.926;73.496;2023-11-18T13:39:58;1.23;;;1.05;;
59907;SDS011;61804;54.926;73.496;2023-11-18T13:42:44;1.30;;;1.10;;
59907;SDS011;61804;54.926;73.496;2023-11-18T13:45:14;0.95;;;0.60;;
59907;SDS011;61804;54.926;73.496;2023-11-18T13:47:50;1.10;;;0.70;;
59907;SDS011;61804;54.926;73.496;2023-11-18T13:50:24;0.65;;;0.50;;
59907;SDS011;61804;54.926;73.496;2023-11-18T13:52:51;1.02;;;1.02;;
59907;SDS011;61804;54.926;73.496;2023-11-18T13:55:20;0.85;;;0.75;;
59907;SDS011;61804;54.926;73.496;2023-11-18T13:57:54;0.80;;;0.73;;
59907;SDS011;61804;54.926;73.496;2023-11-18T14:00:22;1.20;;;0.77;;
59907;SDS011;61804;54.926;73.496;2023-11-18T14:02:50;0.82;;;0.73;;
59907;SDS011;61804;54.926;73.496;2023-11-18T14:05:19;2.47;;;0.45;;
59907;SDS011;61804;54.926;73.496;2023-11-18T14:07:48;1.92;;;1.05;;
59907;SDS011;61804;54.926;73.496;2023-11-18T14:10:15;0.60;;;0.60;;
59907;SDS011;61804;54.926;73.496;2023-11-18T14:13:01;1.00;;;0.90;;
59907;SDS011;61804;54.926;73.496;2023-11-18T14:15:29;2.78;;;2.13;;
59907;SDS011;61804;54.926;73.496;2023-11-18T14:17:56;0.70;;;0.70;;
59907;SDS011;61804;54.926;73.496;2023-11-18T14:20:24;0.90;;;0.75;;
59907;SDS011;61804;54.926;73.496;2023-11-18T14:22:52;0.30;;;0.30;;
59907;SDS011;61804;54.926;73.496;2023-11-18T14:25:19;1.45;;;1.02;;
59907;SDS011;61804;54.926;73.496;2023-11-18T14:27:50;1.95;;;1.27;;
59907;SDS011;61804;54.926;73.496;2023-11-18T14:30:18;0.75;;;0.60;;
59907;SDS011;61804;54.926;73.496;2023-11-18T14:32:46;1.67;;;1.30;;
59907;SDS011;61804;54.926;73.496;2023-11-18T14:35:13;1.38;;;0.77;;
59907;SDS011;61804;54.926;73.496;2023-11-18T14:37:44;0.82;;;0.70;;
59907;SDS011;61804;54.926;73.496;2023-11-18T14:40:15;0.90;;;0.90;;
59907;SDS011;61804;54.926;73.496;2023-11-18T14:42:43;0.45;;;0.45;;
59907;SDS011;61804;54.926;73.496;2023-11-18T14:45:15;1.33;;;0.77;;
59907;SDS011;61804;54.926;73.496;2023-11-18T14:47:44;0.55;;;0.55;;
59907;SDS011;61804;54.926;73.496;2023-11-18T14:50:20;0.77;;;0.60;;
59907;SDS011;61804;54.926;73.496;2023-11-18T14:52:47;0.40;;;0.40;;
59907;SDS011;61804;54.926;73.496;2023-11-18T14:55:28;0.75;;;0.75;;
59907;SDS011;61804;54.926;73.496;2023-11-18T14:57:56;0.60;;;0.60;;
59907;SDS011;61804;54.926;73.496;2023-11-18T15:00:23;2.33;;;0.93;;
59907;SDS011;61804;54.926;73.496;2023-11-18T15:02:54;0.60;;;0.57;;
59907;SDS011;61804;54.926;73.496;2023-11-18T15:05:23;1.70;;;0.52;;
59907;SDS011;61804;54.926;73.496;2023-11-18T15:07:52;0.20;;;0.20;;
59907;SDS011;61804;54.926;73.496;2023-11-18T15:10:20;0.80;;;0.30;;
59907;SDS011;61804;54.926;73.496;2023-11-18T15:12:51;0.60;;;0.60;;
59907;SDS011;61804;54.926;73.496;2023-11-18T15:15:20;0.30;;;0.30;;
59907;SDS011;61804;54.926;73.496;2023-11-18T15:17:48;1.17;;;0.98;;
59907;SDS011;61804;54.926;73.496;2023-11-18T15:20:15;3.20;;;0.55;;